Time;durP1;ratioP1;P1;durP2;ratioP2;P2;SDS_P1;SDS_P2;PMS_P1;PMS_P2;Temp;Humidity;BMP_temperature;BMP_pressure;BME280_temperature;BME280_humidity;BME280_pressure;Samples;Min_cycle;Max_cycle;Signal;HPM_P1;HPM_P2
2023/06/13 00:00:28;;;;;;;19.65;8.43;;;;;;;;;;6258807;28;20755;-57
2023/06/13 00:03:50;;;;;;;19.15;9.23;;;;;;;;;;6259783;28;20054;-55
2023/06/13 00:06:53;;;;;;;17.38;8.27;;;;;;;;;;6259504;28;20037;-54
2023/06/13 00:09:53;;;;;;;19.00;8.48;;;;;;;;;;6259104;28;20049;-57
2023/06/13 00:12:54;;;;;;;22.73;8.85;;;;;;;;;;6256661;28;20090;-55
2023/06/13 00:15:58;;;;;;;23.83;9.75;;;;;;;;;;6258657;28;20041;-55
2023/06/13 00:19:00;;;;;;;25.33;9.70;;;;;;;;;;6258596;28;20043;-56
2023/06/13 00:22:01;;;;;;;20.92;9.43;;;;;;;;;;6256252;28;20487;-56
2023/06/13 00:25:02;;;;;;;19.50;9.40;;;;;;;;;;6256142;28;20041;-55
2023/06/13 00:28:03;;;;;;;18.97;9.37;;;;;;;;;;6257228;28;20110;-54
2023/06/13 00:31:03;;;;;;;21.30;9.65;;;;;;;;;;6256579;28;20061;-57
2023/06/13 00:34:04;;;;;;;19.25;8.68;;;;;;;;;;6257987;28;20520;-58
2023/06/13 00:37:05;;;;;;;21.25;8.95;;;;;;;;;;6256958;28;20045;-57
2023/06/13 00:40:07;;;;;;;19.98;8.98;;;;;;;;;;6258463;28;20048;-55
2023/06/13 00:43:07;;;;;;;19.27;9.35;;;;;;;;;;6257688;28;20067;-55
2023/06/13 00:46:08;;;;;;;22.75;9.13;;;;;;;;;;6257512;28;20139;-57
2023/06/13 00:49:09;;;;;;;19.80;8.68;;;;;;;;;;6257096;28;20117;-57
2023/06/13 00:52:10;;;;;;;18.73;9.00;;;;;;;;;;6257402;28;20047;-57
2023/06/13 00:55:11;;;;;;;19.50;8.50;;;;;;;;;;6257969;28;20136;-56
2023/06/13 00:58:13;;;;;;;20.75;9.40;;;;;;;;;;6258218;28;20147;-59
2023/06/13 01:01:19;;;;;;;19.13;8.48;;;;;;;;;;6256602;28;20072;-57
2023/06/13 01:04:20;;;;;;;21.00;9.32;;;;;;;;;;6255789;28;20051;-56
2023/06/13 01:07:20;;;;;;;24.95;9.23;;;;;;;;;;6257000;28;20045;-56
2023/06/13 01:10:21;;;;;;;21.05;9.30;;;;;;;;;;6258898;28;20047;-58
2023/06/13 01:13:35;;;;;;;19.92;8.85;;;;;;;;;;6256658;28;20060;-53
2023/06/13 01:16:47;;;;;;;26.02;10.35;;;;;;;;;;6256233;28;20101;-58
2023/06/13 01:19:57;;;;;;;18.75;8.95;;;;;;;;;;6256672;28;20057;-57
2023/06/13 01:23:04;;;;;;;18.92;8.93;;;;;;;;;;6256650;28;20052;-55
2023/06/13 01:26:26;;;;;;;24.38;8.60;;;;;;;;;;6256726;28;20059;-56
2023/06/13 01:29:27;;;;;;;;;;;;;;;;;;6258357;28;20052;-55
2023/06/13 01:32:29;;;;;;;15.77;8.73;;;;;;;;;;6257348;28;20720;-54
2023/06/13 01:35:31;;;;;;;;;;;;;;;;;;6256868;28;20511;-54
2023/06/13 01:38:32;;;;;;;21.92;9.40;;;;;;;;;;6255938;28;20015;-56
2023/06/13 01:41:32;;;;;;;24.27;9.77;;;;;;;;;;6258778;28;20044;-54
2023/06/13 01:44:33;;;;;;;23.48;10.45;;;;;;;;;;6259277;28;20041;-56
2023/06/13 01:48:12;;;;;;;25.48;9.90;;;;;;;;;;6257352;28;20051;-55
2023/06/13 01:51:31;;;;;;;24.73;10.20;;;;;;;;;;6259902;28;20102;-57
2023/06/13 01:54:36;;;;;;;22.52;9.70;;;;;;;;;;6255868;28;20059;-56
2023/06/13 01:57:43;;;;;;;20.10;9.57;;;;;;;;;;6257119;28;20089;-51
2023/06/13 02:00:45;;;;;;;22.05;9.77;;;;;;;;;;6257261;28;20195;-56
2023/06/13 02:03:46;;;;;;;23.63;9.63;;;;;;;;;;6256423;28;20064;-53
2023/06/13 02:06:47;;;;;;;25.45;10.32;;;;;;;;;;6255540;28;20041;-56
2023/06/13 02:09:48;;;;;;;28.33;10.75;;;;;;;;;;6255144;28;20040;-54
2023/06/13 02:12:49;;;;;;;21.58;9.70;;;;;;;;;;6256581;28;20068;-57
2023/06/13 02:15:50;;;;;;;22.92;8.95;;;;;;;;;;6256129;28;20492;-57
2023/06/13 02:18:52;;;;;;;23.75;9.32;;;;;;;;;;6252931;28;20364;-56
2023/06/13 02:21:52;;;;;;;22.27;9.70;;;;;;;;;;6256243;28;20071;-55
2023/06/13 02:24:53;;;;;;;21.98;9.70;;;;;;;;;;6254528;28;20060;-53
2023/06/13 02:27:54;;;;;;;23.80;10.18;;;;;;;;;;6256226;28;20048;-57
2023/06/13 02:30:54;;;;;;;21.45;10.20;;;;;;;;;;6254200;28;20080;-56
2023/06/13 02:33:55;;;;;;;20.52;9.75;;;;;;;;;;6255588;28;20048;-53
2023/06/13 02:36:55;;;;;;;21.33;9.95;;;;;;;;;;6256571;28;20191;-55
2023/06/13 02:39:56;;;;;;;25.95;10.48;;;;;;;;;;6261641;28;20117;-55
2023/06/13 02:42:57;;;;;;;27.88;10.75;;;;;;;;;;6259547;28;20548;-50
2023/06/13 02:45:58;;;;;;;23.38;10.70;;;;;;;;;;6256710;28;20067;-57
2023/06/13 02:48:58;;;;;;;36.63;13.55;;;;;;;;;;6255051;28;20109;-55
2023/06/13 02:51:59;;;;;;;38.30;13.10;;;;;;;;;;6254071;28;20037;-53
2023/06/13 02:55:00;;;;;;;34.85;12.50;;;;;;;;;;6256445;28;20087;-51
2023/06/13 02:58:01;;;;;;;27.85;12.02;;;;;;;;;;6261391;28;20049;-56
2023/06/13 03:01:02;;;;;;;33.00;11.75;;;;;;;;;;6257077;28;20107;-56
2023/06/13 03:04:02;;;;;;;31.45;11.13;;;;;;;;;;6257296;28;20045;-54
2023/06/13 03:07:05;;;;;;;26.33;11.02;;;;;;;;;;6255631;28;20041;-55
2023/06/13 03:10:06;;;;;;;25.50;10.82;;;;;;;;;;6252322;28;20044;-56
2023/06/13 03:13:06;;;;;;;24.33;11.38;;;;;;;;;;6253817;28;20043;-56
2023/06/13 03:16:08;;;;;;;27.10;11.70;;;;;;;;;;6255727;28;20496;-56
2023/06/13 03:19:09;;;;;;;28.42;11.45;;;;;;;;;;6252449;28;20075;-56
2023/06/13 03:22:13;;;;;;;29.77;12.38;;;;;;;;;;6255471;28;20033;-56
2023/06/13 03:25:16;;;;;;;29.80;12.68;;;;;;;;;;6256705;28;20049;-55
2023/06/13 03:28:17;;;;;;;29.77;10.85;;;;;;;;;;6259400;28;20052;-56
2023/06/13 03:31:18;;;;;;;25.25;10.80;;;;;;;;;;6258743;28;20073;-56
2023/06/13 03:34:18;;;;;;;26.30;10.98;;;;;;;;;;6259188;28;20041;-55
2023/06/13 03:37:20;;;;;;;24.40;11.30;;;;;;;;;;6262610;28;20124;-54
2023/06/13 03:40:20;;;;;;;25.55;11.52;;;;;;;;;;6259370;28;20496;-51
2023/06/13 03:43:21;;;;;;;23.67;10.93;;;;;;;;;;6260065;28;20037;-54
2023/06/13 03:46:21;;;;;;;25.67;11.02;;;;;;;;;;6258208;28;20041;-53
2023/06/13 03:49:23;;;;;;;26.70;11.75;;;;;;;;;;6261225;28;20095;-56
2023/06/13 03:52:23;;;;;;;30.40;10.50;;;;;;;;;;6259516;28;20044;-52
2023/06/13 03:55:24;;;;;;;26.35;10.85;;;;;;;;;;6260546;28;20503;-55
2023/06/13 03:58:25;;;;;;;30.63;11.95;;;;;;;;;;6258293;28;20141;-57
2023/06/13 04:01:26;;;;;;;26.17;12.40;;;;;;;;;;6259257;28;20137;-55
2023/06/13 04:04:27;;;;;;;23.50;10.77;;;;;;;;;;6260025;28;20037;-56
2023/06/13 04:07:33;;;;;;;24.90;11.50;;;;;;;;;;6260925;28;20060;-56
2023/06/13 04:10:34;;;;;;;25.83;12.50;;;;;;;;;;6258955;28;20045;-52
2023/06/13 04:13:35;;;;;;;28.45;12.02;;;;;;;;;;6258625;28;20551;-55
2023/06/13 04:16:35;;;;;;;29.48;12.23;;;;;;;;;;6258966;28;20783;-57
2023/06/13 04:19:37;;;;;;;22.67;11.38;;;;;;;;;;6257745;28;20147;-56
2023/06/13 04:22:37;;;;;;;31.00;11.60;;;;;;;;;;6260962;28;20041;-55
2023/06/13 04:25:39;;;;;;;36.35;12.52;;;;;;;;;;6261928;28;20049;-57
2023/06/13 04:28:40;;;;;;;28.13;11.57;;;;;;;;;;6260304;28;20037;-55
2023/06/13 04:31:41;;;;;;;26.80;12.10;;;;;;;;;;6258306;28;20052;-55
2023/06/13 04:34:44;;;;;;;27.95;13.18;;;;;;;;;;6256382;28;20061;-54
2023/06/13 04:37:46;;;;;;;33.95;13.38;;;;;;;;;;6255385;28;20033;-56
2023/06/13 04:40:47;;;;;;;28.05;11.60;;;;;;;;;;6258978;28;20045;-57
2023/06/13 04:43:48;;;;;;;29.60;11.00;;;;;;;;;;6258552;28;20454;-51
2023/06/13 04:46:48;;;;;;;25.50;11.65;;;;;;;;;;6259653;28;20041;-52
2023/06/13 04:49:51;;;;;;;24.83;10.43;;;;;;;;;;6257079;28;20037;-53
2023/06/13 04:52:53;;;;;;;27.17;10.60;;;;;;;;;;6257780;28;20134;-56
2023/06/13 04:55:55;;;;;;;32.20;11.25;;;;;;;;;;6257011;28;20053;-48
2023/06/13 04:58:56;;;;;;;22.20;9.57;;;;;;;;;;6256433;28;20063;-55
2023/06/13 05:01:57;;;;;;;23.73;9.88;;;;;;;;;;6256545;28;20473;-56
2023/06/13 05:04:57;;;;;;;24.92;10.48;;;;;;;;;;6255770;28;20044;-54
2023/06/13 05:07:59;;;;;;;24.95;10.50;;;;;;;;;;6257465;28;20052;-48
2023/06/13 05:10:59;;;;;;;25.80;11.33;;;;;;;;;;6257786;28;20128;-55
2023/06/13 05:14:00;;;;;;;24.48;11.25;;;;;;;;;;6263256;28;20970;-57
2023/06/13 05:17:01;;;;;;;27.92;10.65;;;;;;;;;;6259520;28;20056;-56
2023/06/13 05:20:02;;;;;;;28.75;11.32;;;;;;;;;;6260127;28;20061;-56
2023/06/13 05:23:02;;;;;;;23.15;11.68;;;;;;;;;;6256283;28;20033;-55
2023/06/13 05:26:03;;;;;;;23.50;10.32;;;;;;;;;;6254350;28;20371;-53
2023/06/13 05:29:05;;;;;;;23.02;10.82;;;;;;;;;;6253745;28;20049;-55
2023/06/13 05:32:07;;;;;;;28.35;11.10;;;;;;;;;;6254392;28;20581;-56
2023/06/13 05:35:08;;;;;;;22.37;10.77;;;;;;;;;;6259529;28;20045;-56
2023/06/13 05:38:11;;;;;;;;;;;;;;;;;;6260995;28;20726;-56
2023/06/13 05:41:11;;;;;;;25.85;11.07;;;;;;;;;;6256917;28;20338;-51
2023/06/13 05:44:13;;;;;;;25.83;10.43;;;;;;;;;;6256366;28;20120;-51
2023/06/13 05:47:13;;;;;;;27.50;10.10;;;;;;;;;;6255837;28;20056;-54
2023/06/13 05:50:14;;;;;;;22.42;10.50;;;;;;;;;;6255444;28;20041;-53
2023/06/13 05:53:15;;;;;;;22.88;9.52;;;;;;;;;;6257670;28;20040;-57
2023/06/13 05:56:15;;;;;;;19.70;9.73;;;;;;;;;;6257898;28;20528;-56
2023/06/13 05:59:17;;;;;;;23.27;9.50;;;;;;;;;;6253617;28;20045;-57
2023/06/13 06:02:17;;;;;;;23.38;8.65;;;;;;;;;;6255280;28;20087;-57
2023/06/13 06:05:19;;;;;;;24.17;9.07;;;;;;;;;;6255492;28;20043;-57
2023/06/13 06:08:20;;;;;;;22.52;9.88;;;;;;;;;;6255337;28;20051;-52
2023/06/13 06:11:20;;;;;;;19.60;9.05;;;;;;;;;;6254800;28;20745;-52
2023/06/13 06:14:21;;;;;;;16.67;8.27;;;;;;;;;;6256242;28;20049;-56
2023/06/13 06:17:22;;;;;;;20.63;9.52;;;;;;;;;;6255245;28;20551;-57
2023/06/13 06:20:23;;;;;;;23.75;9.15;;;;;;;;;;6255961;28;20071;-57
2023/06/13 06:23:23;;;;;;;22.58;8.93;;;;;;;;;;6254648;28;20044;-57
2023/06/13 06:26:24;;;;;;;20.00;9.43;;;;;;;;;;6255395;28;20048;-54
2023/06/13 06:29:25;;;;;;;18.85;8.95;;;;;;;;;;6255501;28;20056;-57
2023/06/13 06:32:26;;;;;;;20.80;8.27;;;;;;;;;;6258590;28;20049;-51
2023/06/13 06:35:26;;;;;;;19.77;8.40;;;;;;;;;;6254787;28;20139;-50
2023/06/13 06:38:27;;;;;;;19.83;7.70;;;;;;;;;;6254345;28;20140;-56
2023/06/13 06:41:27;;;;;;;17.05;7.68;;;;;;;;;;6254029;28;20041;-57
2023/06/13 06:44:28;;;;;;;20.48;8.52;;;;;;;;;;6257609;28;20049;-53
2023/06/13 06:47:29;;;;;;;17.50;8.15;;;;;;;;;;6257752;28;20120;-56
2023/06/13 06:50:29;;;;;;;21.63;8.10;;;;;;;;;;6257532;28;20064;-58
2023/06/13 06:53:30;;;;;;;16.17;7.82;;;;;;;;;;6255985;28;20037;-57
2023/06/13 06:56:31;;;;;;;15.93;7.72;;;;;;;;;;6254715;28;20048;-58
2023/06/13 06:59:31;;;;;;;23.10;7.68;;;;;;;;;;6255191;28;20044;-54
2023/06/13 07:02:32;;;;;;;21.88;7.50;;;;;;;;;;6255723;28;20048;-57
2023/06/13 07:05:32;;;;;;;16.85;7.47;;;;;;;;;;6259318;28;20079;-56
2023/06/13 07:08:33;;;;;;;21.45;8.38;;;;;;;;;;6258143;28;21421;-58
2023/06/13 07:11:33;;;;;;;23.50;8.35;;;;;;;;;;6260037;28;20345;-58
2023/06/13 07:14:34;;;;;;;18.58;7.50;;;;;;;;;;6260084;28;20496;-57
2023/06/13 07:17:35;;;;;;;17.52;7.40;;;;;;;;;;6258928;28;20064;-53
2023/06/13 07:20:35;;;;;;;11.93;5.95;;;;;;;;;;6260360;28;20169;-58
2023/06/13 07:23:36;;;;;;;13.77;6.15;;;;;;;;;;6260205;28;20436;-56
2023/06/13 07:26:37;;;;;;;17.42;7.13;;;;;;;;;;6260298;28;20599;-57
2023/06/13 07:29:37;;;;;;;16.65;7.68;;;;;;;;;;6259204;28;20056;-56
2023/06/13 07:32:38;;;;;;;14.63;7.38;;;;;;;;;;6261401;28;20477;-57
2023/06/13 07:35:38;;;;;;;17.60;7.00;;;;;;;;;;6259056;28;20048;-57
2023/06/13 07:38:39;;;;;;;18.88;7.18;;;;;;;;;;6260005;28;20064;-59
2023/06/13 07:41:40;;;;;;;20.73;7.68;;;;;;;;;;6259467;28;20064;-59
2023/06/13 07:44:41;;;;;;;16.27;7.40;;;;;;;;;;6257529;28;20048;-58
2023/06/13 07:47:42;;;;;;;16.15;5.40;;;;;;;;;;6258987;28;20094;-59
2023/06/13 07:50:42;;;;;;;19.17;6.70;;;;;;;;;;6260182;28;20094;-57
2023/06/13 07:53:43;;;;;;;18.65;7.18;;;;;;;;;;6259779;28;20539;-58
2023/06/13 07:56:44;;;;;;;15.00;6.22;;;;;;;;;;6256756;28;20037;-58
2023/06/13 07:59:45;;;;;;;19.25;7.15;;;;;;;;;;6256544;28;20072;-56
2023/06/13 08:02:46;;;;;;;17.25;6.88;;;;;;;;;;6257554;28;20048;-55
2023/06/13 08:05:47;;;;;;;15.90;6.63;;;;;;;;;;6257397;28;20049;-57
2023/06/13 08:08:48;;;;;;;11.75;6.40;;;;;;;;;;6256294;28;20072;-57
2023/06/13 08:11:49;;;;;;;12.63;5.63;;;;;;;;;;6259970;28;20471;-58
2023/06/13 08:14:49;;;;;;;13.85;6.53;;;;;;;;;;6258010;28;20030;-58
2023/06/13 08:17:51;;;;;;;15.88;7.07;;;;;;;;;;6256686;28;20037;-59
2023/06/13 08:20:52;;;;;;;18.90;7.15;;;;;;;;;;6258549;28;20041;-58
2023/06/13 08:23:52;;;;;;;14.13;6.30;;;;;;;;;;6258700;28;20052;-57
2023/06/13 08:26:53;;;;;;;13.50;6.03;;;;;;;;;;6257431;28;20156;-58
2023/06/13 08:29:54;;;;;;;13.35;6.00;;;;;;;;;;6257304;28;20053;-58
2023/06/13 08:32:55;;;;;;;13.90;7.40;;;;;;;;;;6257709;28;20049;-56
2023/06/13 08:35:55;;;;;;;16.10;6.78;;;;;;;;;;6257051;28;20060;-58
2023/06/13 08:38:57;;;;;;;13.90;6.53;;;;;;;;;;6256831;28;20072;-57
2023/06/13 08:41:58;;;;;;;12.65;6.47;;;;;;;;;;6258363;28;20048;-58
2023/06/13 08:45:00;;;;;;;18.92;7.90;;;;;;;;;;6262131;28;20514;-58
2023/06/13 08:48:01;;;;;;;16.08;6.57;;;;;;;;;;6257281;28;20491;-58
2023/06/13 08:51:04;;;;;;;12.80;6.70;;;;;;;;;;6256382;28;20095;-57
2023/06/13 08:54:05;;;;;;;14.45;6.80;;;;;;;;;;6257960;28;20740;-58
2023/06/13 08:57:07;;;;;;;16.88;7.10;;;;;;;;;;6256317;28;20575;-57
2023/06/13 09:00:12;;;;;;;23.40;7.57;;;;;;;;;;6261302;28;20104;-56
2023/06/13 09:03:14;;;;;;;17.63;7.25;;;;;;;;;;6257609;28;20041;-57
2023/06/13 09:06:15;;;;;;;16.83;8.13;;;;;;;;;;6258118;28;20435;-58
2023/06/13 09:09:17;;;;;;;15.33;7.53;;;;;;;;;;6255771;28;20044;-57
2023/06/13 09:12:18;;;;;;;18.15;7.63;;;;;;;;;;6256101;28;20375;-57
2023/06/13 09:15:19;;;;;;;16.58;7.50;;;;;;;;;;6258209;28;20049;-58
2023/06/13 09:18:21;;;;;;;15.85;8.30;;;;;;;;;;6255581;28;20502;-58
2023/06/13 09:21:22;;;;;;;15.00;8.07;;;;;;;;;;6256041;28;20041;-57
2023/06/13 09:24:23;;;;;;;16.38;7.78;;;;;;;;;;6257487;28;20053;-55
2023/06/13 09:27:25;;;;;;;17.00;7.32;;;;;;;;;;6255924;28;20389;-57
2023/06/13 09:30:26;;;;;;;16.33;8.10;;;;;;;;;;6257639;28;20045;-58
2023/06/13 09:33:27;;;;;;;18.23;7.68;;;;;;;;;;6256428;28;20044;-57
2023/06/13 09:36:47;;;;;;;20.02;7.90;;;;;;;;;;6261504;28;20049;-57
2023/06/13 09:39:50;;;;;;;14.63;7.40;;;;;;;;;;6256428;28;20047;-56
2023/06/13 09:42:51;;;;;;;17.92;7.95;;;;;;;;;;6260293;28;20539;-56
2023/06/13 09:45:51;;;;;;;18.65;8.35;;;;;;;;;;6257389;28;20040;-56
2023/06/13 09:48:52;;;;;;;16.88;7.93;;;;;;;;;;6258188;28;20083;-55
2023/06/13 09:51:53;;;;;;;15.47;7.77;;;;;;;;;;6258374;28;20128;-56
2023/06/13 09:54:54;;;;;;;13.37;7.47;;;;;;;;;;6261648;28;20045;-56
2023/06/13 09:57:55;;;;;;;;;;;;;;;;;;6261176;28;20064;-58
2023/06/13 10:00:59;;;;;;;15.07;7.47;;;;;;;;;;6256173;28;20395;-57
2023/06/13 10:04:00;;;;;;;21.48;8.15;;;;;;;;;;6253722;28;20037;-56
2023/06/13 10:07:02;;;;;;;17.98;7.90;;;;;;;;;;6254168;28;20053;-57
2023/06/13 10:10:03;;;;;;;;;;;;;;;;;;6255789;28;20160;-55
2023/06/13 10:13:08;;;;;;;19.50;8.35;;;;;;;;;;6257626;28;19921;-58
2023/06/13 10:16:12;;;;;;;17.50;7.90;;;;;;;;;;6256966;28;20144;-57
2023/06/13 10:19:19;;;;;;;16.63;8.38;;;;;;;;;;6255105;28;20049;-57
2023/06/13 10:22:20;;;;;;;17.27;8.65;;;;;;;;;;6256362;28;20045;-53
2023/06/13 10:25:25;;;;;;;16.50;8.60;;;;;;;;;;6256128;28;20057;-56
2023/06/13 10:28:58;;;;;;;21.35;9.10;;;;;;;;;;6256594;28;20144;-58
2023/06/13 10:32:05;;;;;;;17.00;9.30;;;;;;;;;;6239897;28;20139;-57
2023/06/13 10:35:24;;;;;;;19.95;9.52;;;;;;;;;;6256768;28;20435;-56
2023/06/13 10:39:03;;;;;;;21.20;9.23;;;;;;;;;;6262329;28;20049;-57
2023/06/13 10:42:27;;;;;;;19.58;9.13;;;;;;;;;;6264999;28;20040;-57
2023/06/13 10:45:30;;;;;;;17.90;9.05;;;;;;;;;;6261093;28;20041;-55
2023/06/13 10:48:38;;;;;;;16.25;8.55;;;;;;;;;;6258241;28;20308;-56
2023/06/13 10:51:45;;;;;;;17.35;8.85;;;;;;;;;;6260504;28;20072;-57
2023/06/13 10:54:53;;;;;;;15.77;8.65;;;;;;;;;;6258727;28;20053;-57
2023/06/13 10:57:59;;;;;;;17.75;8.70;;;;;;;;;;6259983;28;20076;-57
2023/06/13 11:01:25;;;;;;;25.88;10.43;;;;;;;;;;6260866;28;20546;-57
2023/06/13 11:04:28;;;;;;;25.77;9.45;;;;;;;;;;6260376;28;20049;-57
2023/06/13 11:07:29;;;;;;;18.33;8.90;;;;;;;;;;6260256;28;20072;-57
2023/06/13 11:10:29;;;;;;;19.13;9.13;;;;;;;;;;6258675;28;20526;-55
2023/06/13 11:13:34;;;;;;;21.73;10.00;;;;;;;;;;6261389;28;20435;-55
2023/06/13 11:16:39;;;;;;;16.60;8.43;;;;;;;;;;6262160;28;20478;-55
2023/06/13 11:19:40;;;;;;;19.23;8.95;;;;;;;;;;6259071;28;20132;-54
2023/06/13 11:22:43;;;;;;;20.90;8.60;;;;;;;;;;6258841;28;20067;-56
2023/06/13 11:25:45;;;;;;;18.35;8.93;;;;;;;;;;6259263;28;20098;-57
2023/06/13 11:28:48;;;;;;;18.13;9.07;;;;;;;;;;6259016;28;20053;-56
2023/06/13 11:31:54;;;;;;;26.38;9.90;;;;;;;;;;6259692;28;20571;-57
2023/06/13 11:35:00;;;;;;;21.40;8.98;;;;;;;;;;6259984;28;20041;-55
2023/06/13 11:38:06;;;;;;;18.13;9.02;;;;;;;;;;6260115;28;20411;-58
2023/06/13 11:41:07;;;;;;;21.15;9.45;;;;;;;;;;6259178;28;20044;-56
2023/06/13 11:44:08;;;;;;;18.27;9.07;;;;;;;;;;6264394;28;20028;-54
2023/06/13 11:47:12;;;;;;;21.73;8.95;;;;;;;;;;6261909;28;20071;-54
2023/06/13 11:50:12;;;;;;;18.17;8.88;;;;;;;;;;6260716;28;20037;-58
2023/06/13 11:53:13;;;;;;;19.10;8.77;;;;;;;;;;6261632;28;20068;-57
2023/06/13 11:56:15;;;;;;;16.87;8.80;;;;;;;;;;6261748;28;20033;-57
2023/06/13 11:59:17;;;;;;;19.00;9.23;;;;;;;;;;6264637;28;20118;-52
2023/06/13 12:02:18;;;;;;;16.55;8.90;;;;;;;;;;6262975;28;20086;-57
2023/06/13 12:05:19;;;;;;;19.67;9.20;;;;;;;;;;6257774;28;20140;-54
2023/06/13 12:08:21;;;;;;;17.97;9.30;;;;;;;;;;6262361;28;20126;-57
2023/06/13 12:11:22;;;;;;;22.77;8.70;;;;;;;;;;6256484;28;20090;-57
2023/06/13 12:14:23;;;;;;;;;;;;;;;;;;6260015;28;20066;-54
2023/06/13 12:17:26;;;;;;;18.25;8.43;;;;;;;;;;6256622;28;19930;-57
2023/06/13 12:20:28;;;;;;;18.80;8.80;;;;;;;;;;6258497;28;20041;-58
2023/06/13 12:23:29;;;;;;;13.60;8.07;;;;;;;;;;6256884;28;20136;-54
2023/06/13 12:26:33;;;;;;;14.93;7.72;;;;;;;;;;6258291;28;20045;-57
2023/06/13 12:29:34;;;;;;;17.15;8.15;;;;;;;;;;6256841;28;20060;-55
2023/06/13 12:32:38;;;;;;;17.25;7.47;;;;;;;;;;6256405;28;20857;-57
2023/06/13 12:35:48;;;;;;;14.63;7.57;;;;;;;;;;6257716;28;20097;-57
2023/06/13 12:38:51;;;;;;;15.07;8.40;;;;;;;;;;6258422;28;20470;-58
2023/06/13 12:41:52;;;;;;;21.00;10.05;;;;;;;;;;6255383;28;20218;-57
2023/06/13 12:44:56;;;;;;;;;;;;;;;;;;6260222;28;20582;-56
2023/06/13 12:47:57;;;;;;;16.70;9.02;;;;;;;;;;6262907;28;20015;-56
2023/06/13 12:50:58;;;;;;;15.50;7.95;;;;;;;;;;6258257;28;20492;-57
2023/06/13 12:54:16;;;;;;;15.37;8.00;;;;;;;;;;6257073;28;20037;-57
2023/06/13 12:57:17;;;;;;;13.43;7.45;;;;;;;;;;6258557;28;20120;-54
2023/06/13 13:00:19;;;;;;;18.37;8.60;;;;;;;;;;6260889;28;20037;-56
2023/06/13 13:03:20;;;;;;;16.42;8.60;;;;;;;;;;6263683;28;20500;-53
2023/06/13 13:06:24;;;;;;;15.80;7.60;;;;;;;;;;6257637;28;20063;-56
2023/06/13 13:09:26;;;;;;;15.30;7.40;;;;;;;;;;6258575;28;20140;-57
2023/06/13 13:12:27;;;;;;;15.23;8.35;;;;;;;;;;6257907;28;20079;-54
2023/06/13 13:15:27;;;;;;;14.17;8.17;;;;;;;;;;6256655;28;20549;-57
2023/06/13 13:18:28;;;;;;;15.60;8.90;;;;;;;;;;6255352;28;20053;-56
2023/06/13 13:21:29;;;;;;;17.37;7.43;;;;;;;;;;6257015;28;20079;-58
2023/06/13 13:24:30;;;;;;;16.33;7.97;;;;;;;;;;6256444;28;20500;-50
2023/06/13 13:27:32;;;;;;;15.32;7.43;;;;;;;;;;6245424;28;20110;-50
2023/06/13 13:30:32;;;;;;;11.88;7.00;;;;;;;;;;6248490;28;20099;-53
2023/06/13 13:33:33;;;;;;;15.53;7.20;;;;;;;;;;6244398;28;20045;-55
2023/06/13 13:36:33;;;;;;;12.63;6.77;;;;;;;;;;6245323;28;20072;-57
2023/06/13 13:39:34;;;;;;;15.97;7.80;;;;;;;;;;6245150;28;20053;-52
2023/06/13 13:42:36;;;;;;;14.33;6.93;;;;;;;;;;6247390;28;20055;-56
2023/06/13 13:45:37;;;;;;;13.90;6.95;;;;;;;;;;6248989;28;20199;-57
2023/06/13 13:48:41;;;;;;;13.47;6.60;;;;;;;;;;6245010;28;20055;-56
2023/06/13 13:51:42;;;;;;;12.35;6.60;;;;;;;;;;6246929;28;20130;-53
2023/06/13 13:54:43;;;;;;;11.63;6.40;;;;;;;;;;6244163;28;20079;-54
2023/06/13 13:57:44;;;;;;;13.33;6.27;;;;;;;;;;6244777;28;20413;-55
2023/06/13 14:00:46;;;;;;;11.43;6.33;;;;;;;;;;6246971;28;20056;-54
2023/06/13 14:03:47;;;;;;;10.48;6.28;;;;;;;;;;6244437;28;20059;-53
2023/06/13 14:06:48;;;;;;;12.53;7.17;;;;;;;;;;6244410;28;20412;-57
2023/06/13 14:09:49;;;;;;;15.48;6.78;;;;;;;;;;6248566;28;20041;-53
2023/06/13 14:12:50;;;;;;;14.63;7.93;;;;;;;;;;6246591;28;20079;-58
2023/06/13 14:15:51;;;;;;;10.60;6.83;;;;;;;;;;6245585;28;20340;-54
2023/06/13 14:18:52;;;;;;;14.87;7.50;;;;;;;;;;6244874;28;20390;-51
2023/06/13 14:21:52;;;;;;;18.30;8.73;;;;;;;;;;6247672;28;20697;-52
2023/06/13 14:24:53;;;;;;;18.37;7.30;;;;;;;;;;6245262;28;20053;-53
2023/06/13 14:27:53;;;;;;;17.80;8.17;;;;;;;;;;6243718;28;20056;-55
2023/06/13 14:30:54;;;;;;;11.43;6.90;;;;;;;;;;6244626;28;20049;-55
2023/06/13 14:33:55;;;;;;;11.07;6.43;;;;;;;;;;6245485;28;20052;-56
2023/06/13 14:36:57;;;;;;;20.27;7.77;;;;;;;;;;6246293;28;20444;-53
2023/06/13 14:39:58;;;;;;;14.15;6.88;;;;;;;;;;6244903;28;20565;-53
2023/06/13 14:42:58;;;;;;;11.77;6.57;;;;;;;;;;6245703;28;20041;-53
2023/06/13 14:46:00;;;;;;;10.47;6.03;;;;;;;;;;6248923;28;20187;-54
2023/06/13 14:49:00;;;;;;;11.27;6.45;;;;;;;;;;6252220;28;20515;-57
2023/06/13 14:52:02;;;;;;;12.13;5.77;;;;;;;;;;6253504;28;20041;-52
2023/06/13 14:55:03;;;;;;;;;;;;;;;;;;6255010;28;20049;-54
2023/06/13 14:58:04;;;;;;;32.95;15.25;;;;;;;;;;6254057;28;20418;-54
2023/06/13 15:01:07;;;;;;;25.10;10.60;;;;;;;;;;6254533;28;20084;-55
2023/06/13 15:04:07;;;;;;;20.80;6.85;;;;;;;;;;6253074;28;20967;-57
2023/06/13 15:07:08;;;;;;;20.80;8.00;;;;;;;;;;6252900;28;20124;-56
2023/06/13 15:10:09;;;;;;;12.30;5.93;;;;;;;;;;6254763;28;20500;-57
2023/06/13 15:13:09;;;;;;;77.37;25.57;;;;;;;;;;6253376;28;20489;-56
2023/06/13 15:16:10;;;;;;;63.43;19.23;;;;;;;;;;6253024;28;21179;-57
2023/06/13 15:19:11;;;;;;;15.97;6.07;;;;;;;;;;6255057;28;20516;-57
2023/06/13 15:22:12;;;;;;;271.17;119.93;;;;;;;;;;6258739;28;20127;-53
2023/06/13 15:25:12;;;;;;;38.83;17.73;;;;;;;;;;6260983;28;20092;-58
2023/06/13 15:28:13;;;;;;;11.40;5.00;;;;;;;;;;6264153;28;20041;-57
2023/06/13 15:31:13;;;;;;;13.70;6.20;;;;;;;;;;6263403;28;20949;-56
2023/06/13 15:34:14;;;;;;;27.43;9.80;;;;;;;;;;6265890;28;20487;-55
2023/06/13 15:37:15;;;;;;;40.73;15.67;;;;;;;;;;6261554;28;20044;-57
2023/06/13 15:40:16;;;;;;;21.57;7.77;;;;;;;;;;6263365;28;20053;-60
2023/06/13 15:43:16;;;;;;;15.77;7.60;;;;;;;;;;6258881;28;20468;-54
2023/06/13 15:46:19;;;;;;;15.00;6.83;;;;;;;;;;6262609;28;20143;-56
2023/06/13 15:49:20;;;;;;;10.20;5.30;;;;;;;;;;6260912;28;20380;-54
2023/06/13 15:52:21;;;;;;;12.17;4.63;;;;;;;;;;6257934;28;20041;-59
2023/06/13 15:55:21;;;;;;;9.47;5.57;;;;;;;;;;6260289;28;20060;-62
2023/06/13 15:58:22;;;;;;;10.40;5.30;;;;;;;;;;6258790;28;20057;-58
2023/06/13 16:01:23;;;;;;;11.40;6.27;;;;;;;;;;6266667;28;20488;-58
2023/06/13 16:04:23;;;;;;;11.67;4.73;;;;;;;;;;6262890;28;20554;-59
2023/06/13 16:07:24;;;;;;;13.37;9.47;;;;;;;;;;6262789;28;20044;-59
2023/06/13 16:10:25;;;;;;;15.07;8.60;;;;;;;;;;6262927;28;20412;-59
2023/06/13 16:13:26;;;;;;;53.23;24.17;;;;;;;;;;6263784;28;20098;-60
2023/06/13 16:16:27;;;;;;;;;;;;;;;;;;6263887;28;20036;-59
2023/06/13 16:19:28;;;;;;;32.47;13.45;;;;;;;;;;6262486;28;19959;-60
2023/06/13 16:22:29;;;;;;;34.55;17.70;;;;;;;;;;6258238;28;20041;-59
2023/06/13 16:25:29;;;;;;;7.57;4.87;;;;;;;;;;6261613;28;20071;-59
2023/06/13 16:28:31;;;;;;;17.98;7.50;;;;;;;;;;6258253;28;20500;-59
2023/06/13 16:31:32;;;;;;;11.80;5.25;;;;;;;;;;6264661;28;20041;-59
2023/06/13 16:34:33;;;;;;;10.00;5.67;;;;;;;;;;6260492;28;20045;-59
2023/06/13 16:37:33;;;;;;;16.87;7.60;;;;;;;;;;6256334;28;20156;-59
2023/06/13 16:40:34;;;;;;;25.67;10.73;;;;;;;;;;6257578;28;20458;-59
2023/06/13 16:43:36;;;;;;;74.47;36.27;;;;;;;;;;6260936;28;20057;-59
2023/06/13 16:46:38;;;;;;;65.22;28.90;;;;;;;;;;6257738;28;20412;-60
2023/06/13 16:49:38;;;;;;;30.20;15.40;;;;;;;;;;6257823;28;20459;-58
2023/06/13 16:52:39;;;;;;;11.48;5.60;;;;;;;;;;6254512;28;20763;-59
2023/06/13 16:55:40;;;;;;;12.07;6.80;;;;;;;;;;6258327;28;20094;-59
2023/06/13 16:58:41;;;;;;;14.23;5.25;;;;;;;;;;6263913;28;20052;-58
2023/06/13 17:01:42;;;;;;;247.43;75.83;;;;;;;;;;6258468;28;20053;-58
2023/06/13 17:04:43;;;;;;;245.63;97.63;;;;;;;;;;6259825;28;20084;-59
2023/06/13 17:07:44;;;;;;;15.33;7.20;;;;;;;;;;6256543;28;20053;-59
2023/06/13 17:10:45;;;;;;;46.60;17.23;;;;;;;;;;6259707;28;20047;-59
2023/06/13 17:13:47;;;;;;;121.47;50.30;;;;;;;;;;6257309;28;20098;-60
2023/06/13 17:16:48;;;;;;;26.38;13.27;;;;;;;;;;6257517;28;20076;-60
2023/06/13 17:19:51;;;;;;;22.83;10.50;;;;;;;;;;6258997;28;20044;-59
2023/06/13 17:22:53;;;;;;;17.67;7.85;;;;;;;;;;6258754;28;20040;-59
2023/06/13 17:25:54;;;;;;;24.00;9.33;;;;;;;;;;6259871;28;21240;-59
2023/06/13 17:28:55;;;;;;;;;;;;;;;;;;6263193;28;20131;-60
2023/06/13 17:31:56;;;;;;;18.48;7.65;;;;;;;;;;6259698;28;19935;-58
2023/06/13 17:34:57;;;;;;;23.63;12.10;;;;;;;;;;6259704;28;20083;-59
2023/06/13 17:37:58;;;;;;;224.43;86.40;;;;;;;;;;6260454;28;20037;-57
2023/06/13 17:41:00;;;;;;;117.00;34.57;;;;;;;;;;6263483;28;20120;-59
2023/06/13 17:44:01;;;;;;;42.95;14.38;;;;;;;;;;6264695;28;20041;-60
2023/06/13 17:47:02;;;;;;;37.90;15.67;;;;;;;;;;6260589;28;20505;-59
2023/06/13 17:50:03;;;;;;;45.97;16.13;;;;;;;;;;6263517;28;20080;-59
2023/06/13 17:53:04;;;;;;;11.15;4.60;;;;;;;;;;6257691;28;21136;-59